Time;durP1;ratioP1;P1;durP2;ratioP2;P2;SDS_P1;SDS_P2;PMS_P1;PMS_P2;Temp;Humidity;BMP_temperature;BMP_pressure;BME280_temperature;BME280_humidity;BME280_pressure;Samples;Min_cycle;Max_cycle;Signal;HPM_P1;HPM_P2
2022/01/09 01:36:55;;;;;;;4.00;1.00;;;;;;;18.70;50.25;99227.72;4376886;26;20068;-84
2022/01/09 01:39:21;;;;;;;2.22;1.00;;;;;;;18.68;50.10;99228.78;5040145;28;20052;-83
2022/01/09 01:41:47;;;;;;;3.88;1.23;;;;;;;18.68;50.01;99239.34;5058896;28;20028;-83
2022/01/09 01:44:13;;;;;;;3.22;0.93;;;;;;;18.70;50.03;99237.47;5042729;28;20029;-83
2022/01/09 01:46:39;;;;;;;4.65;1.20;;;;;;;18.66;50.00;99234.16;5060438;28;20025;-87
2022/01/09 01:49:06;;;;;;;3.53;1.00;;;;;;;18.66;49.99;99247.34;5057569;28;20372;-83
2022/01/09 01:51:34;;;;;;;3.00;0.90;;;;;;;18.64;50.21;99254.50;5058408;28;20032;-85
2022/01/09 01:54:01;;;;;;;3.42;0.90;;;;;;;18.68;50.26;99261.31;5039761;28;20025;-87
2022/01/09 01:56:27;;;;;;;5.22;1.25;;;;;;;18.68;50.19;99269.25;5057639;28;20082;-89
2022/01/09 01:58:53;;;;;;;4.05;1.17;;;;;;;18.67;49.94;99275.50;5039784;28;20518;-86
2022/01/09 02:01:19;;;;;;;5.15;0.95;;;;;;;18.68;50.00;99276.34;5040150;28;20378;-87
2022/01/09 02:03:44;;;;;;;4.40;1.38;;;;;;;18.67;50.07;99283.41;5040384;28;20029;-84
2022/01/09 02:06:12;;;;;;;3.20;0.88;;;;;;;18.68;49.85;99277.19;5039719;28;20465;-86
2022/01/09 02:08:37;;;;;;;4.15;1.10;;;;;;;18.70;50.11;99277.13;5040049;28;20021;-87
2022/01/09 02:11:03;;;;;;;2.60;1.00;;;;;;;18.67;50.19;99270.19;5056290;28;20032;-86
2022/01/09 02:13:28;;;;;;;3.45;1.00;;;;;;;18.70;49.99;99270.00;5038361;28;20108;-89
2022/01/09 02:15:58;;;;;;;3.35;1.20;;;;;;;18.66;50.04;99273.78;5057586;28;20028;-89
2022/01/09 02:18:24;;;;;;;4.20;0.90;;;;;;;18.70;50.06;99279.75;5038128;28;20108;-85
2022/01/09 02:20:51;;;;;;;2.95;0.90;;;;;;;18.68;49.96;99277.19;5038322;28;20028;-85
2022/01/09 02:23:18;;;;;;;4.63;1.58;;;;;;;18.68;50.17;99277.19;5055878;28;20029;-85
2022/01/09 02:25:46;;;;;;;4.68;1.02;;;;;;;18.68;50.08;99276.34;5038237;28;20429;-85
2022/01/09 02:28:13;;;;;;;3.65;0.90;;;;;;;18.70;50.24;99270.00;5055707;28;20095;-84
2022/01/09 02:30:40;;;;;;;4.53;1.17;;;;;;;18.66;50.13;99279.06;5038308;28;20017;-85
2022/01/09 02:33:09;;;;;;;3.10;0.85;;;;;;;18.65;50.14;99272.09;5038304;28;20116;-86
2022/01/09 02:35:35;;;;;;;4.22;1.00;;;;;;;18.68;50.00;99274.53;5057624;28;20453;-84
2022/01/09 02:38:05;;;;;;;4.18;1.10;;;;;;;18.69;49.84;99281.53;5056899;28;20047;-85
2022/01/09 02:40:31;;;;;;;2.92;1.00;;;;;;;18.68;50.14;99274.53;5038456;28;20021;-85
2022/01/09 02:42:57;;;;;;;4.30;1.08;;;;;;;18.67;49.93;99274.63;5038490;28;20029;-84
2022/01/09 02:45:24;;;;;;;5.47;1.33;;;;;;;18.73;50.10;99283.06;5055681;28;20033;-85
2022/01/09 02:47:52;;;;;;;5.05;1.23;;;;;;;18.66;49.95;99289.63;5038142;28;20024;-87
2022/01/09 02:50:44;;;;;;;3.45;1.20;;;;;;;18.69;49.91;99278.06;5038032;28;20090;-85
2022/01/09 02:53:15;;;;;;;4.80;1.45;;;;;;;18.70;50.24;99280.59;5054834;28;20110;-86
2022/01/09 02:55:41;;;;;;;6.22;1.40;;;;;;;18.67;49.96;99285.19;5037401;28;20120;-86
2022/01/09 02:58:07;;;;;;;6.03;1.52;;;;;;;18.65;50.04;99282.66;5037547;28;20457;-86
2022/01/09 03:00:36;;;;;;;5.53;1.30;;;;;;;18.65;49.94;99283.50;5037942;28;20033;-84
2022/01/09 03:03:02;;;;;;;4.55;1.20;;;;;;;18.66;50.02;99279.06;5037822;28;20043;-86
2022/01/09 03:05:29;;;;;;;5.43;1.42;;;;;;;18.68;50.25;99282.47;5038123;28;20033;-86
2022/01/09 03:07:55;;;;;;;6.20;1.38;;;;;;;18.64;50.29;99287.06;5039638;28;20078;-84
2022/01/09 03:10:22;;;;;;;4.30;1.17;;;;;;;18.62;50.08;99277.53;5055510;28;20032;-85
2022/01/09 03:12:49;;;;;;;5.55;1.33;;;;;;;18.65;50.16;99293.22;5038236;28;20020;-84
2022/01/09 03:15:16;;;;;;;5.22;1.20;;;;;;;18.63;50.27;99297.72;5039270;28;20059;-84
2022/01/09 03:17:42;;;;;;;5.80;1.40;;;;;;;18.64;50.19;99286.22;5056178;28;20077;-85
2022/01/09 03:20:14;;;;;;;7.68;1.90;;;;;;;18.63;50.40;99297.72;5055931;28;20055;-85
2022/01/09 03:22:39;;;;;;;4.45;1.23;;;;;;;18.62;50.34;99290.72;5055846;28;20461;-85
2022/01/09 03:25:06;;;;;;;5.82;1.67;;;;;;;18.63;50.17;99295.06;5055462;28;20035;-84
2022/01/09 03:27:32;;;;;;;4.63;1.20;;;;;;;18.64;50.24;99291.50;5055317;28;20029;-84
2022/01/09 03:29:58;;;;;;;4.88;1.63;;;;;;;18.62;50.13;99282.81;5038107;28;20120;-85
2022/01/09 03:32:24;;;;;;;6.28;1.90;;;;;;;18.62;50.15;99282.81;5037965;28;20361;-85
2022/01/09 03:34:50;;;;;;;5.57;1.70;;;;;;;18.62;50.42;99293.38;5038308;28;20517;-84
2022/01/09 03:37:15;;;;;;;7.32;1.75;;;;;;;18.60;50.33;99295.25;5055831;28;20076;-84
2022/01/09 03:39:41;;;;;;;5.38;1.80;;;;;;;18.58;50.54;99303.25;5038050;28;20056;-86
2022/01/09 03:42:07;;;;;;;6.47;1.85;;;;;;;18.64;50.24;99302.06;5038365;28;20584;-84
2022/01/09 03:44:32;;;;;;;7.15;2.08;;;;;;;18.64;50.21;99284.44;5055726;28;20032;-84
2022/01/09 03:46:58;;;;;;;6.20;1.92;;;;;;;18.63;50.42;99293.31;5055666;28;20029;-84
2022/01/09 03:49:23;;;;;;;4.20;1.23;;;;;;;18.62;50.22;99302.16;5055458;28;20024;-85
2022/01/09 03:51:54;;;;;;;5.18;1.35;;;;;;;18.63;50.16;99289.78;5037156;28;20097;-83
2022/01/09 03:54:23;;;;;;;6.53;1.73;;;;;;;18.64;49.92;99286.22;5054820;28;20029;-84
2022/01/09 03:56:50;;;;;;;5.68;1.67;;;;;;;18.67;50.40;99288.69;5036974;28;20025;-84
2022/01/09 03:59:16;;;;;;;6.30;1.83;;;;;;;18.65;50.39;99295.88;5036983;28;20017;-84
2022/01/09 04:01:42;;;;;;;5.63;1.67;;;;;;;18.63;50.41;99284.50;5037071;28;20385;-84
2022/01/09 04:04:09;;;;;;;7.13;1.80;;;;;;;18.63;50.08;99268.66;5054480;28;20032;-84
2022/01/09 04:06:35;;;;;;;6.97;1.80;;;;;;;18.63;50.40;99272.16;5036782;28;20094;-84
2022/01/09 04:09:07;;;;;;;5.22;1.67;;;;;;;18.61;50.22;99275.81;5053761;28;20103;-84
2022/01/09 04:11:38;;;;;;;5.65;1.30;;;;;;;18.65;50.20;99267.63;5036936;28;20104;-85
2022/01/09 04:14:03;;;;;;;5.53;1.70;;;;;;;18.63;50.25;99271.28;5037120;28;20045;-86
2022/01/09 04:16:29;;;;;;;4.93;1.40;;;;;;;18.62;50.16;99277.53;5036868;28;20060;-85
2022/01/09 04:18:55;;;;;;;6.93;1.85;;;;;;;18.64;50.17;99273.00;5036829;28;20377;-85
2022/01/09 04:21:21;;;;;;;7.85;1.90;;;;;;;18.66;50.05;99284.34;5036870;28;20095;-85
2022/01/09 04:23:46;;;;;;;6.93;1.83;;;;;;;18.63;50.27;99276.56;5036986;28;20063;-85
2022/01/09 04:26:12;;;;;;;4.07;1.42;;;;;;;18.63;50.17;99273.94;5037045;28;20470;-85
2022/01/09 04:28:38;;;;;;;6.55;1.85;;;;;;;18.62;50.41;99280.16;5037033;28;20017;-84
2022/01/09 04:31:04;;;;;;;4.80;1.58;;;;;;;18.61;50.32;99281.09;5037082;28;20366;-87
2022/01/09 04:33:30;;;;;;;7.03;1.85;;;;;;;18.61;50.35;99283.75;5036923;28;20021;-87
2022/01/09 04:35:55;;;;;;;4.90;1.60;;;;;;;18.63;50.29;99279.22;5054149;28;20041;-87
2022/01/09 04:38:21;;;;;;;8.32;1.90;;;;;;;18.62;50.27;99274.88;5040339;28;20029;-86
2022/01/09 04:40:47;;;;;;;5.05;1.60;;;;;;;18.64;50.26;99265.94;5041138;28;20017;-85
2022/01/09 04:43:14;;;;;;;5.75;1.50;;;;;;;18.67;50.11;99272.84;5040300;28;20040;-85
2022/01/09 04:45:40;;;;;;;6.75;1.85;;;;;;;18.64;50.20;99270.34;5041229;28;20036;-86
2022/01/09 04:48:08;;;;;;;7.60;1.80;;;;;;;18.64;50.57;99270.34;5040247;28;20025;-85
2022/01/09 04:50:36;;;;;;;4.75;1.67;;;;;;;18.65;50.25;99266.81;5040140;28;20058;-85
2022/01/09 04:53:06;;;;;;;7.43;2.13;;;;;;;18.64;50.14;99258.00;5040050;28;20025;-86
2022/01/09 04:55:38;;;;;;;8.00;1.88;;;;;;;18.65;50.36;99272.09;5057787;28;20025;-83
2022/01/09 04:58:04;;;;;;;7.47;1.85;;;;;;;18.67;50.20;99275.50;5057455;28;20025;-86
2022/01/09 05:00:30;;;;;;;7.00;2.10;;;;;;;18.65;50.14;99262.34;5061130;28;20039;-87
2022/01/09 05:02:56;;;;;;;8.95;2.28;;;;;;;18.63;50.25;99252.78;5040194;28;20116;-85
2022/01/09 05:05:22;;;;;;;7.63;1.92;;;;;;;18.64;50.43;99262.41;5039972;28;20025;-86
2022/01/09 05:07:48;;;;;;;7.05;2.00;;;;;;;18.61;50.26;99262.59;5039765;28;20402;-86
2022/01/09 05:10:14;;;;;;;6.15;1.98;;;;;;;18.61;50.36;99244.09;5039743;28;20111;-85
2022/01/09 05:12:40;;;;;;;8.38;2.10;;;;;;;18.61;50.24;99254.69;5057492;28;20047;-84
2022/01/09 05:15:07;;;;;;;7.95;2.13;;;;;;;18.61;50.14;99265.25;5057475;28;20036;-84
2022/01/09 05:17:33;;;;;;;6.47;1.92;;;;;;;18.62;50.49;99256.38;5040189;28;20032;-83
2022/01/09 05:19:59;;;;;;;7.00;2.03;;;;;;;18.62;50.23;99266.94;5041385;28;20353;-86
2022/01/09 05:22:28;;;;;;;5.72;1.77;;;;;;;18.60;50.51;99269.66;5061648;28;20025;-85
2022/01/09 05:24:55;;;;;;;7.18;1.92;;;;;;;18.63;50.04;99263.38;5039228;28;20021;-85
2022/01/09 05:27:22;;;;;;;6.10;2.00;;;;;;;18.62;50.39;99270.47;5039900;28;20117;-84
2022/01/09 05:29:48;;;;;;;8.60;2.67;;;;;;;18.67;50.24;99258.75;5039142;28;20112;-84
2022/01/09 05:32:14;;;;;;;10.35;2.28;;;;;;;18.64;50.37;99265.06;5039280;28;20235;-85
2022/01/09 05:34:40;;;;;;;8.50;1.98;;;;;;;18.62;50.34;99259.88;5056807;28;20021;-84
2022/01/09 05:37:06;;;;;;;7.97;2.17;;;;;;;18.61;50.38;99254.69;5056597;28;20052;-84
2022/01/09 05:39:33;;;;;;;9.05;2.47;;;;;;;18.59;50.39;99251.28;5057782;28;20020;-84
2022/01/09 05:42:02;;;;;;;7.05;1.70;;;;;;;18.62;50.08;99248.44;5039111;28;20488;-84
2022/01/09 05:44:28;;;;;;;6.43;1.80;;;;;;;18.59;50.09;99254.75;5039080;28;20470;-84
2022/01/09 05:46:54;;;;;;;8.13;2.38;;;;;;;18.61;50.26;99247.63;5038993;28;20021;-84
2022/01/09 05:49:19;;;;;;;6.78;2.33;;;;;;;18.57;50.27;99242.56;5037817;28;20051;-84
2022/01/09 05:51:45;;;;;;;8.15;3.00;;;;;;;18.60;50.15;99237.13;5039060;28;20095;-84
2022/01/09 05:54:11;;;;;;;7.00;2.63;;;;;;;18.58;50.50;99231.03;5038730;28;20036;-84
2022/01/09 05:56:37;;;;;;;7.05;2.03;;;;;;;18.61;50.23;99233.53;5038959;28;20353;-84
2022/01/09 05:59:03;;;;;;;10.45;2.75;;;;;;;18.63;50.16;99226.38;5038925;28;20025;-84
2022/01/09 06:01:28;;;;;;;10.05;2.65;;;;;;;18.59;50.29;99225.69;5056343;28;20096;-84
2022/01/09 06:03:54;;;;;;;7.60;2.53;;;;;;;18.61;50.22;99222.97;5038669;28;20047;-85
2022/01/09 06:06:19;;;;;;;7.30;2.42;;;;;;;18.61;50.18;99223.84;5056267;28;20020;-85
2022/01/09 06:08:45;;;;;;;9.13;2.83;;;;;;;18.59;50.36;99224.84;5038953;28;20111;-84
2022/01/09 06:11:11;;;;;;;12.63;2.70;;;;;;;18.63;50.23;99236.94;5038980;28;20390;-85
2022/01/09 06:13:36;;;;;;;9.88;3.00;;;;;;;18.61;50.30;99238.81;5039275;28;20462;-86
2022/01/09 06:16:03;;;;;;;7.53;2.58;;;;;;;18.60;50.09;99243.25;5039211;28;20037;-84
2022/01/09 06:18:30;;;;;;;8.85;2.78;;;;;;;18.59;50.47;99240.72;5039179;28;20025;-85
2022/01/09 06:20:56;;;;;;;5.97;2.13;;;;;;;18.62;50.35;99243.16;5039039;28;20040;-85
2022/01/09 06:23:23;;;;;;;9.50;2.70;;;;;;;18.60;50.50;99247.69;5038507;28;20067;-85
2022/01/09 06:25:51;;;;;;;9.45;2.80;;;;;;;18.59;50.46;99241.53;5038334;28;20032;-87
2022/01/09 06:28:17;;;;;;;8.32;2.35;;;;;;;18.62;50.30;99235.22;5038257;28;20063;-86
2022/01/09 06:30:43;;;;;;;9.50;2.65;;;;;;;18.60;50.26;99232.66;5056086;28;20037;-85
2022/01/09 06:33:10;;;;;;;9.82;2.97;;;;;;;18.62;50.30;99229.94;5038181;28;20021;-84
2022/01/09 06:35:36;;;;;;;8.15;2.08;;;;;;;18.62;50.31;99230.81;5056190;28;20098;-87
2022/01/09 06:38:03;;;;;;;10.60;2.90;;;;;;;18.60;50.31;99222.09;5039476;28;20024;-85
2022/01/09 06:40:29;;;;;;;10.02;2.88;;;;;;;18.63;50.16;99226.38;5055578;28;20382;-85
2022/01/09 06:42:54;;;;;;;9.68;2.53;;;;;;;18.61;50.50;99228.25;5055834;28;20105;-84
2022/01/09 06:45:22;;;;;;;10.82;2.78;;;;;;;18.62;50.29;99224.66;5038000;28;20049;-85
2022/01/09 06:47:48;;;;;;;10.38;2.10;;;;;;;18.58;50.38;99229.28;5055590;28;20099;-85
2022/01/09 06:50:15;;;;;;;8.45;2.28;;;;;;;18.63;50.52;99218.44;5055884;28;20082;-84
2022/01/09 06:52:41;;;;;;;8.63;3.03;;;;;;;18.62;50.44;99214.97;5037826;28;20024;-84
2022/01/09 06:55:08;;;;;;;8.05;2.80;;;;;;;18.63;50.35;99218.44;5055025;28;20090;-85
2022/01/09 06:57:34;;;;;;;8.15;2.40;;;;;;;18.61;50.11;99217.69;5040795;28;20369;-85
2022/01/09 07:00:00;;;;;;;8.45;2.80;;;;;;;18.60;50.36;99219.47;5037375;28;20021;-86
2022/01/09 07:02:26;;;;;;;9.00;2.40;;;;;;;18.62;50.35;99219.38;5055434;28;20057;-85
2022/01/09 07:04:52;;;;;;;8.32;2.13;;;;;;;18.61;50.39;99212.41;5037641;28;20017;-86
2022/01/09 07:07:17;;;;;;;6.97;2.10;;;;;;;18.62;50.31;99224.66;5037535;28;20021;-83
2022/01/09 07:09:43;;;;;;;7.93;2.60;;;;;;;18.64;50.21;99206.94;5037675;28;20025;-84
2022/01/09 07:12:09;;;;;;;7.20;2.17;;;;;;;18.62;50.18;99203.53;5054233;28;20032;-83
2022/01/09 07:14:36;;;;;;;8.15;2.65;;;;;;;18.60;50.40;99185.09;5037584;28;20461;-84
2022/01/09 07:17:01;;;;;;;8.10;2.42;;;;;;;18.60;50.38;99200.13;5037758;28;20032;-84
2022/01/09 07:19:27;;;;;;;7.60;2.42;;;;;;;18.61;50.14;99186.84;5037345;28;20032;-84
2022/01/09 07:21:53;;;;;;;6.78;2.40;;;;;;;18.63;50.08;99192.88;5037323;28;20024;-84
2022/01/09 07:24:19;;;;;;;10.20;2.58;;;;;;;18.64;50.36;99175.22;5054893;28;20025;-85
2022/01/09 07:26:44;;;;;;;8.02;2.80;;;;;;;18.63;50.18;99173.50;5037267;28;20020;-83
2022/01/09 07:29:10;;;;;;;9.38;2.75;;;;;;;18.62;50.27;99166.53;5037588;28;20025;-85
2022/01/09 07:31:36;;;;;;;10.43;2.92;;;;;;;18.59;50.39;99166.72;5038654;28;20017;-83
2022/01/09 07:34:01;;;;;;;10.73;2.75;;;;;;;18.63;49.97;99170.88;5042364;28;20064;-83
2022/01/09 07:36:27;;;;;;;10.15;2.45;;;;;;;18.62;50.41;99161.25;5037916;28;20132;-84
2022/01/09 07:38:52;;;;;;;10.48;2.70;;;;;;;18.62;50.23;99161.25;5037170;28;20026;-84
2022/01/09 07:41:18;;;;;;;9.65;2.72;;;;;;;18.61;50.19;99154.25;5033926;28;20435;-84
2022/01/09 07:43:44;;;;;;;8.45;2.53;;;;;;;18.60;50.36;99139.34;5034888;28;20033;-84
2022/01/09 07:46:10;;;;;;;7.63;2.30;;;;;;;18.62;50.08;99150.66;5034234;28;20091;-84
2022/01/09 07:48:35;;;;;;;8.98;2.75;;;;;;;18.62;50.39;99156.81;5035202;28;20035;-84
2022/01/09 07:51:01;;;;;;;7.80;2.58;;;;;;;18.62;50.42;99155.97;5050529;28;20018;-84
2022/01/09 07:53:27;;;;;;;8.95;2.75;;;;;;;18.60;50.36;99165.78;5033894;28;20053;-84
2022/01/09 07:55:53;;;;;;;13.90;3.13;;;;;;;18.62;50.29;99163.88;5033945;28;20029;-84
2022/01/09 07:58:19;;;;;;;10.00;3.03;;;;;;;18.61;50.37;99154.25;5034738;28;20026;-84
2022/01/09 08:00:45;;;;;;;9.07;2.50;;;;;;;18.60;50.29;99153.41;5034063;28;20025;-84
2022/01/09 08:03:12;;;;;;;8.35;2.45;;;;;;;18.60;50.30;99163.13;5050791;28;20487;-85
2022/01/09 08:05:37;;;;;;;9.40;2.60;;;;;;;18.61;50.65;99167.47;5034208;28;20466;-84
2022/01/09 08:08:03;;;;;;;9.27;2.65;;;;;;;18.61;50.39;99164.81;5033998;28;20029;-85
2022/01/09 08:10:29;;;;;;;8.57;2.75;;;;;;;18.60;50.40;99163.97;5035116;28;20021;-85
2022/01/09 08:12:55;;;;;;;11.02;3.00;;;;;;;18.59;50.25;99182.56;5036084;28;20163;-86
2022/01/09 08:15:20;;;;;;;8.90;2.78;;;;;;;18.61;50.35;99185.97;5038433;28;20032;-85
2022/01/09 08:17:46;;;;;;;10.10;3.08;;;;;;;18.61;50.39;99185.97;5039217;28;20176;-85
2022/01/09 08:20:14;;;;;;;10.00;2.75;;;;;;;18.61;50.37;99191.25;5037428;28;20108;-85
2022/01/09 08:22:41;;;;;;;10.50;2.58;;;;;;;18.63;50.14;99184.09;5038551;28;20032;-85
2022/01/09 08:25:12;;;;;;;9.05;3.33;;;;;;;18.62;50.31;99171.81;5040781;28;20025;-84
2022/01/09 08:27:38;;;;;;;9.40;2.92;;;;;;;18.63;50.30;99168.22;5038507;28;20033;-84
2022/01/09 08:30:06;;;;;;;8.38;2.90;;;;;;;18.62;50.50;99166.53;5037052;28;20046;-83
2022/01/09 08:32:32;;;;;;;7.22;2.28;;;;;;;18.62;50.25;99155.97;5037852;28;20448;-84
2022/01/09 08:34:57;;;;;;;8.13;2.58;;;;;;;18.63;50.27;99158.53;5036861;28;20033;-85
2022/01/09 08:37:24;;;;;;;7.28;2.40;;;;;;;18.64;50.31;99167.28;5036699;28;20045;-86
2022/01/09 08:39:50;;;;;;;9.07;2.67;;;;;;;18.63;50.34;99162.94;5038303;28;20029;-85
2022/01/09 08:42:15;;;;;;;9.30;2.65;;;;;;;18.67;50.15;99164.47;5036533;28;20144;-86
2022/01/09 08:44:41;;;;;;;7.30;2.70;;;;;;;18.63;50.36;99168.22;5035923;28;20032;-86
2022/01/09 08:47:09;;;;;;;8.70;2.90;;;;;;;18.65;50.05;99176.94;5037239;28;20469;-86
2022/01/09 08:49:35;;;;;;;10.40;3.20;;;;;;;18.66;50.27;99170.72;5037865;28;20127;-85
2022/01/09 08:52:01;;;;;;;8.48;2.78;;;;;;;18.64;50.40;99169.94;5033134;28;20021;-85
2022/01/09 08:54:29;;;;;;;10.07;3.10;;;;;;;18.64;50.17;99175.22;5032271;28;20025;-85
2022/01/09 08:56:55;;;;;;;9.00;2.80;;;;;;;18.62;50.13;99172.69;5036328;28;20465;-86
2022/01/09 08:59:20;;;;;;;7.53;2.63;;;;;;;18.67;50.18;99190.91;5036113;28;20057;-85
2022/01/09 09:01:47;;;;;;;8.23;2.40;;;;;;;18.66;50.33;99178.66;5037206;28;20021;-84
2022/01/09 09:04:13;;;;;;;8.23;3.40;;;;;;;18.65;50.20;99187.50;5037124;28;20025;-84
2022/01/09 09:06:39;;;;;;;8.23;2.88;;;;;;;18.68;50.28;99178.56;5017564;28;20025;-83
2022/01/09 09:09:06;;;;;;;10.35;3.35;;;;;;;18.68;50.06;99181.22;5050083;28;20030;-87
2022/01/09 09:11:32;;;;;;;7.65;2.88;;;;;;;18.64;50.46;99185.78;5035017;28;20028;-86
2022/01/09 09:13:58;;;;;;;9.32;2.50;;;;;;;18.65;50.16;99182.22;5041052;28;20022;-82
2022/01/09 09:16:23;;;;;;;10.75;3.22;;;;;;;18.66;50.20;99178.66;5037611;28;20374;-84
2022/01/09 09:18:50;;;;;;;7.57;2.65;;;;;;;18.66;50.25;99183.94;5036121;28;20386;-86
2022/01/09 09:21:16;;;;;;;7.57;2.55;;;;;;;18.63;50.17;99194.66;5033965;28;20079;-84
2022/01/09 09:23:43;;;;;;;10.38;3.20;;;;;;;18.62;50.44;99192.97;5035503;28;20537;-84
2022/01/09 09:26:11;;;;;;;7.18;2.50;;;;;;;18.64;50.33;99188.44;5037263;28;20025;-83
2022/01/09 09:28:38;;;;;;;7.97;2.65;;;;;;;18.65;49.98;99198.09;5035977;28;20388;-81
2022/01/09 09:31:04;;;;;;;9.75;2.67;;;;;;;18.62;50.43;99192.97;5027116;28;20067;-85
2022/01/09 09:33:30;;;;;;;6.28;2.17;;;;;;;18.62;50.45;99192.97;5036415;28;20021;-85
2022/01/09 09:36:02;;;;;;;9.25;2.50;;;;;;;18.65;50.55;99182.22;5041113;28;20071;-82
2022/01/09 09:38:29;;;;;;;9.15;2.58;;;;;;;18.65;50.06;99196.28;5041581;28;20128;-83
2022/01/09 09:40:55;;;;;;;9.27;2.42;;;;;;;18.66;50.27;99194.50;5034938;28;20036;-83
2022/01/09 09:43:21;;;;;;;7.50;2.20;;;;;;;18.60;50.42;99189.56;5047728;28;20029;-84
2022/01/09 09:45:46;;;;;;;8.90;2.00;;;;;;;18.62;50.64;99188.53;5034863;28;20094;-84
2022/01/09 09:48:12;;;;;;;6.68;2.20;;;;;;;18.62;50.49;99187.66;5041816;28;20028;-85
2022/01/09 09:50:38;;;;;;;5.85;2.17;;;;;;;18.61;50.63;99178.91;5035654;28;20078;-87
2022/01/09 09:53:04;;;;;;;8.00;2.35;;;;;;;18.61;50.30;99191.25;5038354;28;20078;-84
2022/01/09 09:55:30;;;;;;;6.85;2.05;;;;;;;18.61;50.74;99191.25;5055391;28;20335;-85
2022/01/09 09:57:56;;;;;;;6.93;2.20;;;;;;;18.61;50.43;99188.63;5051536;28;20021;-85
2022/01/09 10:00:23;;;;;;;7.53;2.20;;;;;;;18.62;50.69;99192.97;5039181;28;20421;-85
2022/01/09 10:02:51;;;;;;;8.88;2.85;;;;;;;18.65;50.42;99191.00;5038847;28;20366;-86
2022/01/09 10:05:24;;;;;;;7.28;2.40;;;;;;;18.63;50.17;99194.66;5056376;28;20021;-87
2022/01/09 10:07:54;;;;;;;5.57;1.73;;;;;;;18.63;50.40;99192.00;5038487;28;20029;-83
2022/01/09 10:10:22;;;;;;;7.03;2.63;;;;;;;18.63;50.38;99205.22;5035956;28;20374;-84
2022/01/09 10:12:48;;;;;;;9.10;2.50;;;;;;;18.65;50.64;99203.38;5035226;28;20021;-85
2022/01/09 10:15:19;;;;;;;5.50;1.83;;;;;;;18.64;50.47;99212.22;5038703;28;20059;-85
2022/01/09 10:17:49;;;;;;;4.93;2.00;;;;;;;18.61;50.36;99218.56;5055985;28;20376;-86
2022/01/09 10:20:18;;;;;;;6.97;2.30;;;;;;;18.59;50.60;99214.28;5054620;28;20021;-87
2022/01/09 10:22:49;;;;;;;8.07;2.30;;;;;;;18.60;50.65;99203.59;5038128;28;20116;-88
2022/01/09 10:25:36;;;;;;;7.13;2.33;;;;;;;18.62;50.72;99204.38;5050529;28;20471;-86
2022/01/09 10:28:22;;;;;;;6.28;2.13;;;;;;;18.59;50.54;99209.00;5038054;28;20025;-83
2022/01/09 10:30:51;;;;;;;6.65;1.98;;;;;;;18.63;50.31;99218.44;5041085;28;20017;-83
2022/01/09 10:33:23;;;;;;;8.95;2.25;;;;;;;18.63;50.41;99221.09;5037886;28;20042;-85
2022/01/09 10:35:49;;;;;;;8.82;2.25;;;;;;;18.65;50.63;99203.38;5054809;28;20049;-86
2022/01/09 10:38:17;;;;;;;8.15;2.15;;;;;;;18.64;50.50;99191.06;5036870;28;20373;-87
2022/01/09 10:40:46;;;;;;;7.20;2.13;;;;;;;18.61;50.57;99193.91;5037518;28;20071;-88
2022/01/09 10:43:17;;;;;;;7.75;2.42;;;;;;;18.61;50.51;99185.97;5036750;28;20017;-88
2022/01/09 10:45:47;;;;;;;6.05;1.70;;;;;;;18.67;50.51;99185.63;5035276;28;20035;-88
2022/01/09 10:48:21;;;;;;;6.40;1.95;;;;;;;18.65;50.40;99179.59;5049672;28;20022;-86
2022/01/09 10:50:48;;;;;;;7.93;1.88;;;;;;;18.63;50.52;99181.44;5053743;28;20056;-85
2022/01/09 10:53:17;;;;;;;6.30;2.00;;;;;;;18.65;50.51;99176.94;5055192;28;20044;-85
2022/01/09 10:55:45;;;;;;;7.30;2.17;;;;;;;18.63;50.65;99168.22;5055161;28;20211;-86
2022/01/09 10:58:23;;;;;;;5.45;1.75;;;;;;;18.61;50.78;99164.81;5044733;28;20461;-87
2022/01/09 11:01:08;;;;;;;4.88;1.58;;;;;;;18.61;50.59;99155.13;5048602;28;20017;-84
2022/01/09 11:03:35;;;;;;;5.60;1.60;;;;;;;18.63;50.74;99161.16;5048237;28;20029;-85
2022/01/09 11:06:02;;;;;;;6.35;2.13;;;;;;;18.64;50.51;99151.44;5054814;28;20033;-82
2022/01/09 11:08:31;;;;;;;4.65;1.95;;;;;;;18.63;50.85;99150.59;5037430;28;20119;-85
2022/01/09 11:10:59;;;;;;;5.55;1.70;;;;;;;18.66;50.81;99152.22;5055588;28;20016;-83
2022/01/09 11:13:26;;;;;;;6.80;2.05;;;;;;;18.64;50.88;99140.84;5037577;28;20370;-84
2022/01/09 11:18:39;;;;;;;6.55;2.03;;;;;;;18.70;50.75;99151.09;5056369;28;20106;-85
2022/01/09 11:21:05;;;;;;;7.35;2.10;;;;;;;18.72;50.86;99140.44;5038347;28;20052;-87
2022/01/09 11:23:59;;;;;;;6.30;2.53;;;;;;;18.71;51.01;99136.09;5038761;28;20035;-85
2022/01/09 11:26:35;;;;;;;6.75;2.10;;;;;;;18.72;50.94;99140.44;5054821;28;20086;-84
2022/01/09 11:29:06;;;;;;;8.27;2.15;;;;;;;18.71;50.97;99136.94;5054865;28;20103;-84
2022/01/09 11:31:59;;;;;;;5.75;2.15;;;;;;;18.71;50.80;99121.09;5037100;28;20443;-86
2022/01/09 11:34:38;;;;;;;6.35;2.20;;;;;;;18.72;50.71;99120.16;5037116;28;20033;-86
2022/01/09 11:37:22;;;;;;;7.68;2.42;;;;;;;18.72;50.70;99109.56;5037062;28;20068;-84
2022/01/09 11:39:47;;;;;;;9.18;2.70;;;;;;;18.74;50.70;99101.56;5037354;28;20347;-84
2022/01/09 11:42:15;;;;;;;7.38;2.00;;;;;;;18.74;50.79;99106.84;5037905;28;20036;-84
2022/01/09 11:44:53;;;;;;;7.30;2.30;;;;;;;18.75;50.78;99113.84;5057585;28;20017;-85
2022/01/09 11:47:20;;;;;;;9.02;2.60;;;;;;;18.75;50.85;99109.38;5058291;28;20457;-85
2022/01/09 11:49:58;;;;;;;7.50;2.70;;;;;;;18.76;50.82;99108.47;5044591;28;20474;-92
2022/01/09 11:52:56;;;;;;;5.40;2.20;;;;;;;18.76;50.75;99103.19;5059275;28;20020;-96
2022/01/09 11:55:42;;;;;;;8.80;2.70;;;;;;;18.76;50.74;99089.97;5021614;28;20006;-91
2022/01/09 11:58:11;;;;;;;5.33;2.37;;;;;;;18.73;50.75;99082.19;5088912;23;20068;-92
2022/01/09 12:00:57;;;;;;;6.15;2.35;;;;;;;18.73;50.82;99079.56;5061277;28;20026;-93
2022/01/09 12:03:35;;;;;;;5.28;2.03;;;;;;;18.76;50.77;99084.69;5060905;28;20040;-91
2022/01/09 12:06:18;;;;;;;6.20;2.83;;;;;;;18.77;50.58;99072.31;5126812;23;20046;-95
2022/01/09 12:09:00;;;;;;;7.60;2.53;;;;;;;18.80;50.53;99074.78;5021647;28;20022;-94
2022/01/09 12:19:11;;;;;;;8.13;2.67;;;;;;;18.63;50.76;99051.94;5278398;23;20035;-95
2022/01/09 12:24:44;;;;;;;6.80;2.55;;;;;;;18.74;50.57;99060.13;5044128;28;20045;-93
2022/01/09 12:27:48;;;;;;;7.05;2.75;;;;;;;18.81;50.61;99059.75;5389039;23;20080;-85
2022/01/09 12:30:50;;;;;;;7.15;2.88;;;;;;;18.77;50.75;99065.22;4963991;28;20039;-88
2022/01/09 12:33:19;;;;;;;8.75;2.70;;;;;;;18.76;50.94;99068.81;4967990;28;20064;-88
2022/01/09 12:35:55;;;;;;;7.72;2.95;;;;;;;18.79;50.65;99063.34;4982560;28;20031;-89
2022/01/09 12:38:23;;;;;;;6.90;2.83;;;;;;;18.77;50.80;99059.94;4982828;28;20041;-86
2022/01/09 12:58:14;;;;;;;8.15;2.95;;;;;;;18.79;50.79;99036.91;4959649;28;20074;-90
2022/01/09 13:00:41;;;;;;;6.63;2.70;;;;;;;18.77;50.80;99028.22;4975650;28;20531;-88
2022/01/09 13:03:07;;;;;;;6.72;2.60;;;;;;;18.79;50.64;99047.47;4959537;28;20062;-88
2022/01/09 13:05:33;;;;;;;7.70;3.25;;;;;;;18.78;50.52;99035.22;4965078;28;20113;-87
2022/01/09 13:08:18;;;;;;;7.75;2.67;;;;;;;18.79;50.83;99033.41;4974400;28;20127;-85
2022/01/09 13:10:44;;;;;;;8.15;3.22;;;;;;;18.81;50.91;99036.81;4962155;29;20027;-86
2022/01/09 13:13:11;;;;;;;6.78;3.10;;;;;;;18.83;50.79;99036.75;4978194;28;20035;-86
2022/01/09 13:15:39;;;;;;;7.32;3.40;;;;;;;18.80;50.66;99037.78;4976190;28;20023;-85
2022/01/09 13:18:06;;;;;;;7.93;3.10;;;;;;;18.81;50.81;99030.69;4959035;29;20036;-84
2022/01/09 13:20:32;;;;;;;6.18;2.50;;;;;;;18.80;50.61;99027.19;4959158;28;20412;-88
2022/01/09 13:23:09;;;;;;;8.50;3.13;;;;;;;18.79;50.91;99018.41;4970908;28;20062;-86
2022/01/09 13:25:46;;;;;;;7.40;3.17;;;;;;;18.77;50.78;99022.94;4942908;29;20480;-86
2022/01/09 13:28:21;;;;;;;7.50;2.88;;;;;;;18.78;50.90;99024.63;4960861;28;20047;-87
2022/01/09 13:30:47;;;;;;;7.35;3.20;;;;;;;18.78;50.69;99021.13;4996221;28;20034;-86
2022/01/09 13:33:13;;;;;;;7.45;3.25;;;;;;;18.78;50.78;99024.63;4981075;28;20041;-86
2022/01/09 13:35:39;;;;;;;6.93;3.00;;;;;;;18.81;50.67;99012.19;4997379;28;20452;-87
2022/01/09 13:38:05;;;;;;;8.27;3.28;;;;;;;18.82;50.89;99020.03;4997962;28;20471;-85
2022/01/09 13:40:30;;;;;;;7.57;2.78;;;;;;;18.84;50.77;99012.00;4997630;28;20100;-86
2022/01/09 13:42:56;;;;;;;8.85;3.28;;;;;;;18.85;50.60;99019.00;4989306;28;20045;-87